sensor_id;sensor_type;location;lat;lon;timestamp;pressure;altitude;pressure_sealevel;temperature;humidity
28456;BME280;15682;56.742;38.866;2023-07-13T00:01:49;98410.0;;;13.2;93.3
28456;BME280;15682;56.742;38.866;2023-07-13T00:03:48;98410.0;;;13.1;93.3
28456;BME280;15682;56.742;38.866;2023-07-13T00:05:57;98400.0;;;13.1;93.3
28456;BME280;15682;56.742;38.866;2023-07-13T00:07:50;98400.0;;;13.2;93.3
28456;BME280;15682;56.742;38.866;2023-07-13T00:09:49;98400.0;;;13.2;94.1
28456;BME280;15682;56.742;38.866;2023-07-13T00:11:52;98400.0;;;13.2;93.1
28456;BME280;15682;56.742;38.866;2023-07-13T00:13:50;98400.0;;;13.1;93.4
28456;BME280;15682;56.742;38.866;2023-07-13T00:15:50;98400.0;;;13.1;92.6
28456;BME280;15682;56.742;38.866;2023-07-13T00:17:51;98400.0;;;13.1;93.2
28456;BME280;15682;56.742;38.866;2023-07-13T00:19:50;98400.0;;;13.1;93.1
28456;BME280;15682;56.742;38.866;2023-07-13T00:21:51;98400.0;;;13.1;93.1
28456;BME280;15682;56.742;38.866;2023-07-13T00:23:51;98400.0;;;13.2;93.6
28456;BME280;15682;56.742;38.866;2023-07-13T00:25:51;98400.0;;;13.3;93.5
28456;BME280;15682;56.742;38.866;2023-07-13T00:27:51;98400.0;;;13.3;93.9
28456;BME280;15682;56.742;38.866;2023-07-13T00:29:52;98400.0;;;13.3;93.1
28456;BME280;15682;56.742;38.866;2023-07-13T00:31:52;98390.0;;;13.2;93.3
28456;BME280;15682;56.742;38.866;2023-07-13T00:33:52;98390.0;;;13.2;93.3
28456;BME280;15682;56.742;38.866;2023-07-13T00:35:53;98390.0;;;13.2;92.6
28456;BME280;15682;56.742;38.866;2023-07-13T00:37:53;98380.0;;;13.2;92.6
28456;BME280;15682;56.742;38.866;2023-07-13T00:39:53;98380.0;;;13.2;93.2
28456;BME280;15682;56.742;38.866;2023-07-13T00:41:53;98380.0;;;13.2;93.0
28456;BME280;15682;56.742;38.866;2023-07-13T00:43:53;98380.0;;;13.2;92.7
28456;BME280;15682;56.742;38.866;2023-07-13T00:46:11;98380.0;;;13.2;93.3
28456;BME280;15682;56.742;38.866;2023-07-13T00:47:55;98370.0;;;13.2;93.3
28456;BME280;15682;56.742;38.866;2023-07-13T00:49:54;98370.0;;;13.2;93.0
28456;BME280;15682;56.742;38.866;2023-07-13T00:51:56;98370.0;;;13.3;93.0
28456;BME280;15682;56.742;38.866;2023-07-13T00:53:59;98370.0;;;13.3;92.4
28456;BME280;15682;56.742;38.866;2023-07-13T00:55:56;98370.0;;;13.2;92.4
28456;BME280;15682;56.742;38.866;2023-07-13T00:57:55;98370.0;;;13.2;92.4
28456;BME280;15682;56.742;38.866;2023-07-13T00:59:59;98370.0;;;13.2;92.2
28456;BME280;15682;56.742;38.866;2023-07-13T01:01:56;98370.0;;;13.3;92.2
28456;BME280;15682;56.742;38.866;2023-07-13T01:03:56;98370.0;;;13.3;93.0
28456;BME280;15682;56.742;38.866;2023-07-13T01:05:56;98370.0;;;13.3;92.3
28456;BME280;15682;56.742;38.866;2023-07-13T01:07:57;98370.0;;;13.3;92.3
28456;BME280;15682;56.742;38.866;2023-07-13T01:09:57;98370.0;;;13.3;92.6
28456;BME280;15682;56.742;38.866;2023-07-13T01:11:57;98370.0;;;13.4;92.6
28456;BME280;15682;56.742;38.866;2023-07-13T01:13:57;98370.0;;;13.4;92.6
28456;BME280;15682;56.742;38.866;2023-07-13T01:16:02;98370.0;;;13.4;93.9
28456;BME280;15682;56.742;38.866;2023-07-13T01:17:58;98370.0;;;13.4;92.4
28456;BME280;15682;56.742;38.866;2023-07-13T01:19:59;98370.0;;;13.4;92.9
28456;BME280;15682;56.742;38.866;2023-07-13T01:21:58;98370.0;;;13.2;92.3
28456;BME280;15682;56.742;38.866;2023-07-13T01:23:59;98370.0;;;13.3;93.5
28456;BME280;15682;56.742;38.866;2023-07-13T01:26:00;98370.0;;;13.3;92.6
28456;BME280;15682;56.742;38.866;2023-07-13T01:27:59;98370.0;;;13.3;92.6
28456;BME280;15682;56.742;38.866;2023-07-13T01:29:59;98370.0;;;13.3;92.7
28456;BME280;15682;56.742;38.866;2023-07-13T01:32:00;98380.0;;;13.3;92.7
28456;BME280;15682;56.742;38.866;2023-07-13T01:34:00;98380.0;;;13.3;92.7
28456;BME280;15682;56.742;38.866;2023-07-13T01:36:00;98380.0;;;13.3;93.8
28456;BME280;15682;56.742;38.866;2023-07-13T01:38:00;98380.0;;;13.3;92.7
28456;BME280;15682;56.742;38.866;2023-07-13T01:40:01;98380.0;;;13.2;92.7
28456;BME280;15682;56.742;38.866;2023-07-13T01:42:01;98380.0;;;13.2;92.7
28456;BME280;15682;56.742;38.866;2023-07-13T01:44:01;98380.0;;;13.2;92.1
28456;BME280;15682;56.742;38.866;2023-07-13T01:46:02;98380.0;;;13.4;93.0
28456;BME280;15682;56.742;38.866;2023-07-13T01:48:02;98380.0;;;13.3;92.4
28456;BME280;15682;56.742;38.866;2023-07-13T01:50:02;98380.0;;;13.3;93.4
28456;BME280;15682;56.742;38.866;2023-07-13T01:52:03;98380.0;;;13.3;92.3
28456;BME280;15682;56.742;38.866;2023-07-13T01:54:03;98380.0;;;13.3;92.3
28456;BME280;15682;56.742;38.866;2023-07-13T01:56:03;98380.0;;;13.3;92.9
28456;BME280;15682;56.742;38.866;2023-07-13T01:58:04;98380.0;;;13.3;92.3
28456;BME280;15682;56.742;38.866;2023-07-13T02:00:06;98380.0;;;13.3;92.3
28456;BME280;15682;56.742;38.866;2023-07-13T02:02:04;98380.0;;;13.3;91.7
28456;BME280;15682;56.742;38.866;2023-07-13T02:04:04;98380.0;;;13.5;91.7
28456;BME280;15682;56.742;38.866;2023-07-13T02:06:04;98380.0;;;13.5;91.7
28456;BME280;15682;56.742;38.866;2023-07-13T02:08:04;98380.0;;;13.5;92.3
28456;BME280;15682;56.742;38.866;2023-07-13T02:10:06;98380.0;;;13.5;91.6
28456;BME280;15682;56.742;38.866;2023-07-13T02:12:06;98380.0;;;13.4;91.6
28456;BME280;15682;56.742;38.866;2023-07-13T02:14:05;98380.0;;;13.4;91.6
28456;BME280;15682;56.742;38.866;2023-07-13T02:16:06;98380.0;;;13.4;91.6
28456;BME280;15682;56.742;38.866;2023-07-13T02:18:06;98380.0;;;13.4;91.6
28456;BME280;15682;56.742;38.866;2023-07-13T02:20:07;98380.0;;;13.4;91.0
28456;BME280;15682;56.742;38.866;2023-07-13T02:22:06;98380.0;;;13.4;90.4
28456;BME280;15682;56.742;38.866;2023-07-13T02:24:07;98380.0;;;13.4;90.4
28456;BME280;15682;56.742;38.866;2023-07-13T02:26:07;98390.0;;;13.4;91.5
28456;BME280;15682;56.742;38.866;2023-07-13T02:28:07;98390.0;;;13.4;90.9
28456;BME280;15682;56.742;38.866;2023-07-13T02:30:11;98390.0;;;13.4;91.4
28456;BME280;15682;56.742;38.866;2023-07-13T02:32:08;98390.0;;;13.4;91.4
28456;BME280;15682;56.742;38.866;2023-07-13T02:34:08;98390.0;;;13.4;90.8
28456;BME280;15682;56.742;38.866;2023-07-13T02:36:09;98390.0;;;13.4;91.3
28456;BME280;15682;56.742;38.866;2023-07-13T02:38:09;98390.0;;;13.4;90.5
28456;BME280;15682;56.742;38.866;2023-07-13T02:40:09;98390.0;;;13.4;91.3
28456;BME280;15682;56.742;38.866;2023-07-13T02:42:09;98400.0;;;13.4;91.3
28456;BME280;15682;56.742;38.866;2023-07-13T02:44:09;98400.0;;;13.4;90.7
28456;BME280;15682;56.742;38.866;2023-07-13T02:46:10;98400.0;;;13.4;90.7
28456;BME280;15682;56.742;38.866;2023-07-13T02:48:10;98400.0;;;13.4;90.7
28456;BME280;15682;56.742;38.866;2023-07-13T02:50:10;98400.0;;;13.4;91.0
28456;BME280;15682;56.742;38.866;2023-07-13T02:52:10;98400.0;;;13.4;91.0
28456;BME280;15682;56.742;38.866;2023-07-13T02:54:11;98400.0;;;13.4;91.0
28456;BME280;15682;56.742;38.866;2023-07-13T02:56:11;98400.0;;;13.5;90.3
28456;BME280;15682;56.742;38.866;2023-07-13T02:58:11;98400.0;;;13.5;90.3
28456;BME280;15682;56.742;38.866;2023-07-13T03:00:12;98400.0;;;13.5;90.7
28456;BME280;15682;56.742;38.866;2023-07-13T03:02:12;98400.0;;;13.5;90.7
28456;BME280;15682;56.742;38.866;2023-07-13T03:04:12;98400.0;;;13.5;89.9
28456;BME280;15682;56.742;38.866;2023-07-13T03:06:13;98400.0;;;13.5;89.3
28456;BME280;15682;56.742;38.866;2023-07-13T03:08:13;98400.0;;;13.5;88.7
28456;BME280;15682;56.742;38.866;2023-07-13T03:10:13;98400.0;;;13.5;88.5
28456;BME280;15682;56.742;38.866;2023-07-13T03:12:13;98400.0;;;13.5;88.4
28456;BME280;15682;56.742;38.866;2023-07-13T03:14:13;98400.0;;;13.7;89.4
28456;BME280;15682;56.742;38.866;2023-07-13T03:16:14;98400.0;;;13.7;87.6
28456;BME280;15682;56.742;38.866;2023-07-13T03:18:14;98380.0;;;13.6;88.1
28456;BME280;15682;56.742;38.866;2023-07-13T03:20:14;98380.0;;;13.5;89.5
28456;BME280;15682;56.742;38.866;2023-07-13T03:22:15;98380.0;;;13.2;89.5
28456;BME280;15682;56.742;38.866;2023-07-13T03:24:15;98380.0;;;13.0;90.1
28456;BME280;15682;56.742;38.866;2023-07-13T03:26:18;98390.0;;;12.9;91.1
28456;BME280;15682;56.742;38.866;2023-07-13T03:28:15;98390.0;;;12.9;90.6
28456;BME280;15682;56.742;38.866;2023-07-13T03:30:15;98390.0;;;13.0;90.5
28456;BME280;15682;56.742;38.866;2023-07-13T03:32:16;98390.0;;;13.0;91.5
28456;BME280;15682;56.742;38.866;2023-07-13T03:34:16;98390.0;;;13.1;91.5
28456;BME280;15682;56.742;38.866;2023-07-13T03:36:18;98390.0;;;13.1;91.5
28456;BME280;15682;56.742;38.866;2023-07-13T03:38:17;98380.0;;;13.1;91.5
28456;BME280;15682;56.742;38.866;2023-07-13T03:40:17;98370.0;;;13.1;92.6
28456;BME280;15682;56.742;38.866;2023-07-13T03:42:17;98370.0;;;13.1;91.9
28456;BME280;15682;56.742;38.866;2023-07-13T03:44:18;98370.0;;;13.1;91.4
28456;BME280;15682;56.742;38.866;2023-07-13T03:46:18;98370.0;;;13.1;91.4
28456;BME280;15682;56.742;38.866;2023-07-13T03:48:18;98370.0;;;13.3;92.8
28456;BME280;15682;56.742;38.866;2023-07-13T03:50:18;98370.0;;;13.3;91.8
28456;BME280;15682;56.742;38.866;2023-07-13T03:52:18;98370.0;;;13.2;92.5
28456;BME280;15682;56.742;38.866;2023-07-13T03:54:19;98370.0;;;13.2;92.5
28456;BME280;15682;56.742;38.866;2023-07-13T03:56:19;98370.0;;;13.2;93.1
28456;BME280;15682;56.742;38.866;2023-07-13T03:58:29;98370.0;;;13.2;92.5
28456;BME280;15682;56.742;38.866;2023-07-13T04:00:20;98370.0;;;13.2;92.7
28456;BME280;15682;56.742;38.866;2023-07-13T04:02:20;98370.0;;;13.3;91.6
28456;BME280;15682;56.742;38.866;2023-07-13T04:04:20;98370.0;;;13.3;92.7
28456;BME280;15682;56.742;38.866;2023-07-13T04:06:22;98370.0;;;13.3;92.7
28456;BME280;15682;56.742;38.866;2023-07-13T04:08:20;98370.0;;;13.3;92.2
28456;BME280;15682;56.742;38.866;2023-07-13T04:10:21;98370.0;;;13.3;92.0
28456;BME280;15682;56.742;38.866;2023-07-13T04:12:21;98370.0;;;13.3;92.0
28456;BME280;15682;56.742;38.866;2023-07-13T04:14:21;98370.0;;;13.3;92.7
28456;BME280;15682;56.742;38.866;2023-07-13T04:16:22;98370.0;;;13.2;92.7
28456;BME280;15682;56.742;38.866;2023-07-13T04:18:22;98370.0;;;13.3;93.2
28456;BME280;15682;56.742;38.866;2023-07-13T04:20:22;98370.0;;;13.3;93.5
28456;BME280;15682;56.742;38.866;2023-07-13T04:22:22;98370.0;;;13.3;92.2
28456;BME280;15682;56.742;38.866;2023-07-13T04:24:23;98370.0;;;13.3;92.2
28456;BME280;15682;56.742;38.866;2023-07-13T04:26:23;98350.0;;;13.3;92.6
28456;BME280;15682;56.742;38.866;2023-07-13T04:28:24;98350.0;;;13.4;91.9
28456;BME280;15682;56.742;38.866;2023-07-13T04:30:24;98350.0;;;13.6;92.6
28456;BME280;15682;56.742;38.866;2023-07-13T04:32:24;98350.0;;;13.6;92.0
28456;BME280;15682;56.742;38.866;2023-07-13T04:34:24;98350.0;;;13.6;91.3
28456;BME280;15682;56.742;38.866;2023-07-13T04:36:24;98350.0;;;13.7;91.8
28456;BME280;15682;56.742;38.866;2023-07-13T04:38:26;98350.0;;;13.7;90.5
28456;BME280;15682;56.742;38.866;2023-07-13T04:40:26;98350.0;;;13.7;90.3
28456;BME280;15682;56.742;38.866;2023-07-13T04:42:25;98350.0;;;13.7;90.3
28456;BME280;15682;56.742;38.866;2023-07-13T04:44:25;98350.0;;;13.7;91.0
28456;BME280;15682;56.742;38.866;2023-07-13T04:46:26;98330.0;;;13.7;91.0
28456;BME280;15682;56.742;38.866;2023-07-13T04:48:26;98330.0;;;13.7;91.0
28456;BME280;15682;56.742;38.866;2023-07-13T04:50:26;98330.0;;;13.9;93.5
28456;BME280;15682;56.742;38.866;2023-07-13T04:52:26;98330.0;;;13.9;90.9
28456;BME280;15682;56.742;38.866;2023-07-13T04:54:27;98330.0;;;13.8;90.9
28456;BME280;15682;56.742;38.866;2023-07-13T04:56:27;98330.0;;;13.8;91.8
28456;BME280;15682;56.742;38.866;2023-07-13T04:58:27;98330.0;;;13.8;91.7
28456;BME280;15682;56.742;38.866;2023-07-13T05:00:28;98330.0;;;13.8;91.5
28456;BME280;15682;56.742;38.866;2023-07-13T05:02:28;98330.0;;;13.8;90.9
28456;BME280;15682;56.742;38.866;2023-07-13T05:04:28;98330.0;;;13.8;90.9
28456;BME280;15682;56.742;38.866;2023-07-13T05:06:28;98330.0;;;13.8;91.3
28456;BME280;15682;56.742;38.866;2023-07-13T05:08:29;98330.0;;;13.8;91.3
28456;BME280;15682;56.742;38.866;2023-07-13T05:10:29;98330.0;;;14.0;91.3
28456;BME280;15682;56.742;38.866;2023-07-13T05:12:29;98330.0;;;14.0;90.7
28456;BME280;15682;56.742;38.866;2023-07-13T05:14:30;98330.0;;;14.0;90.7
28456;BME280;15682;56.742;38.866;2023-07-13T05:16:30;98320.0;;;14.0;90.7
28456;BME280;15682;56.742;38.866;2023-07-13T05:18:30;98320.0;;;14.0;90.1
28456;BME280;15682;56.742;38.866;2023-07-13T05:20:30;98320.0;;;14.1;89.8
28456;BME280;15682;56.742;38.866;2023-07-13T05:22:31;98320.0;;;14.1;90.5
28456;BME280;15682;56.742;38.866;2023-07-13T05:24:31;98330.0;;;14.1;89.4
28456;BME280;15682;56.742;38.866;2023-07-13T05:26:31;98330.0;;;14.1;89.0
28456;BME280;15682;56.742;38.866;2023-07-13T05:28:32;98330.0;;;14.1;89.1
28456;BME280;15682;56.742;38.866;2023-07-13T05:30:32;98330.0;;;14.1;88.9
28456;BME280;15682;56.742;38.866;2023-07-13T05:32:32;98330.0;;;14.1;90.3
28456;BME280;15682;56.742;38.866;2023-07-13T05:34:32;98330.0;;;14.1;89.5
28456;BME280;15682;56.742;38.866;2023-07-13T05:36:33;98330.0;;;14.1;88.9
28456;BME280;15682;56.742;38.866;2023-07-13T05:38:33;98330.0;;;14.1;89.9
28456;BME280;15682;56.742;38.866;2023-07-13T05:40:33;98330.0;;;14.1;89.9
28456;BME280;15682;56.742;38.866;2023-07-13T05:42:34;98330.0;;;14.1;89.9
28456;BME280;15682;56.742;38.866;2023-07-13T05:44:34;98340.0;;;14.1;89.0
28456;BME280;15682;56.742;38.866;2023-07-13T05:46:34;98340.0;;;14.1;90.5
28456;BME280;15682;56.742;38.866;2023-07-13T05:48:34;98340.0;;;14.1;90.5
28456;BME280;15682;56.742;38.866;2023-07-13T05:50:35;98340.0;;;14.1;90.3
28456;BME280;15682;56.742;38.866;2023-07-13T05:52:35;98340.0;;;14.1;90.6
28456;BME280;15682;56.742;38.866;2023-07-13T05:54:35;98340.0;;;14.3;88.7
28456;BME280;15682;56.742;38.866;2023-07-13T05:56:36;98340.0;;;14.3;89.8
28456;BME280;15682;56.742;38.866;2023-07-13T05:58:36;98340.0;;;14.3;89.2
28456;BME280;15682;56.742;38.866;2023-07-13T06:00:36;98340.0;;;14.2;88.7
28456;BME280;15682;56.742;38.866;2023-07-13T06:02:37;98340.0;;;14.2;88.7
28456;BME280;15682;56.742;38.866;2023-07-13T06:04:37;98340.0;;;14.2;90.1
28456;BME280;15682;56.742;38.866;2023-07-13T06:06:37;98320.0;;;14.2;89.3
28456;BME280;15682;56.742;38.866;2023-07-13T06:08:38;98320.0;;;14.2;89.3
28456;BME280;15682;56.742;38.866;2023-07-13T06:10:38;98320.0;;;14.2;88.9
28456;BME280;15682;56.742;38.866;2023-07-13T06:12:38;98310.0;;;14.2;88.4
28456;BME280;15682;56.742;38.866;2023-07-13T06:14:38;98310.0;;;14.2;89.9
28456;BME280;15682;56.742;38.866;2023-07-13T06:16:40;98310.0;;;14.2;89.9
28456;BME280;15682;56.742;38.866;2023-07-13T06:18:40;98300.0;;;14.2;89.9
28456;BME280;15682;56.742;38.866;2023-07-13T06:20:39;98300.0;;;14.2;89.7
28456;BME280;15682;56.742;38.866;2023-07-13T06:22:39;98300.0;;;14.2;90.8
28456;BME280;15682;56.742;38.866;2023-07-13T06:24:40;98300.0;;;14.2;89.6
28456;BME280;15682;56.742;38.866;2023-07-13T06:26:40;98300.0;;;14.2;91.1
28456;BME280;15682;56.742;38.866;2023-07-13T06:28:40;98300.0;;;14.2;89.6
28456;BME280;15682;56.742;38.866;2023-07-13T06:30:41;98300.0;;;14.3;89.2
28456;BME280;15682;56.742;38.866;2023-07-13T06:32:41;98300.0;;;14.3;89.2
28456;BME280;15682;56.742;38.866;2023-07-13T06:34:41;98300.0;;;14.3;89.1
28456;BME280;15682;56.742;38.866;2023-07-13T06:36:41;98300.0;;;14.4;90.5
28456;BME280;15682;56.742;38.866;2023-07-13T06:38:42;98300.0;;;14.4;88.6
28456;BME280;15682;56.742;38.866;2023-07-13T06:40:42;98300.0;;;14.4;89.0
28456;BME280;15682;56.742;38.866;2023-07-13T06:42:42;98300.0;;;14.4;89.0
28456;BME280;15682;56.742;38.866;2023-07-13T06:44:43;98300.0;;;14.4;89.3
28456;BME280;15682;56.742;38.866;2023-07-13T06:46:43;98300.0;;;14.6;90.0
28456;BME280;15682;56.742;38.866;2023-07-13T06:48:43;98300.0;;;14.6;88.5
28456;BME280;15682;56.742;38.866;2023-07-13T06:50:44;98300.0;;;14.8;88.8
28456;BME280;15682;56.742;38.866;2023-07-13T06:52:44;98300.0;;;14.9;88.8
28456;BME280;15682;56.742;38.866;2023-07-13T06:54:44;98300.0;;;15.0;87.8
28456;BME280;15682;56.742;38.866;2023-07-13T06:56:44;98300.0;;;15.2;86.9
28456;BME280;15682;56.742;38.866;2023-07-13T06:58:45;98300.0;;;15.2;87.3
28456;BME280;15682;56.742;38.866;2023-07-13T07:00:46;98300.0;;;15.0;87.2
28456;BME280;15682;56.742;38.866;2023-07-13T07:02:46;98300.0;;;14.9;87.2
28456;BME280;15682;56.742;38.866;2023-07-13T07:04:46;98300.0;;;14.9;88.8
28456;BME280;15682;56.742;38.866;2023-07-13T07:06:46;98300.0;;;14.7;87.9
28456;BME280;15682;56.742;38.866;2023-07-13T07:08:46;98300.0;;;14.7;89.0
28456;BME280;15682;56.742;38.866;2023-07-13T07:10:47;98300.0;;;14.6;89.9
28456;BME280;15682;56.742;38.866;2023-07-13T07:12:47;98300.0;;;14.7;88.4
28456;BME280;15682;56.742;38.866;2023-07-13T07:14:47;98280.0;;;14.7;88.9
28456;BME280;15682;56.742;38.866;2023-07-13T07:16:48;98280.0;;;14.7;90.2
28456;BME280;15682;56.742;38.866;2023-07-13T07:18:48;98280.0;;;14.8;89.6
28456;BME280;15682;56.742;38.866;2023-07-13T07:20:49;98280.0;;;14.8;90.4
28456;BME280;15682;56.742;38.866;2023-07-13T07:22:49;98280.0;;;14.5;89.5
28456;BME280;15682;56.742;38.866;2023-07-13T07:24:49;98280.0;;;14.3;90.4
28456;BME280;15682;56.742;38.866;2023-07-13T07:26:50;98280.0;;;14.3;90.4
28456;BME280;15682;56.742;38.866;2023-07-13T07:28:50;98280.0;;;14.2;91.6
28456;BME280;15682;56.742;38.866;2023-07-13T07:30:53;98280.0;;;14.0;92.8
28456;BME280;15682;56.742;38.866;2023-07-13T07:32:50;98280.0;;;14.0;92.8
28456;BME280;15682;56.742;38.866;2023-07-13T07:34:50;98280.0;;;13.8;93.8
28456;BME280;15682;56.742;38.866;2023-07-13T07:36:51;98280.0;;;13.8;92.6
28456;BME280;15682;56.742;38.866;2023-07-13T07:38:51;98280.0;;;14.0;93.4
28456;BME280;15682;56.742;38.866;2023-07-13T07:40:52;98280.0;;;14.0;93.8
28456;BME280;15682;56.742;38.866;2023-07-13T07:42:52;98280.0;;;14.0;92.7
28456;BME280;15682;56.742;38.866;2023-07-13T07:44:52;98280.0;;;14.0;94.3
28456;BME280;15682;56.742;38.866;2023-07-13T07:46:52;98280.0;;;14.0;94.5
28456;BME280;15682;56.742;38.866;2023-07-13T07:48:53;98280.0;;;14.1;92.7
28456;BME280;15682;56.742;38.866;2023-07-13T07:50:53;98280.0;;;14.1;93.1
28456;BME280;15682;56.742;38.866;2023-07-13T07:52:53;98280.0;;;14.1;93.2
28456;BME280;15682;56.742;38.866;2023-07-13T07:54:54;98280.0;;;14.1;92.6
28456;BME280;15682;56.742;38.866;2023-07-13T07:56:54;98290.0;;;14.1;93.6
28456;BME280;15682;56.742;38.866;2023-07-13T07:58:54;98290.0;;;14.1;94.7
28456;BME280;15682;56.742;38.866;2023-07-13T08:01:02;98290.0;;;14.1;95.3
28456;BME280;15682;56.742;38.866;2023-07-13T08:02:55;98290.0;;;14.0;95.3
28456;BME280;15682;56.742;38.866;2023-07-13T08:04:55;98290.0;;;13.8;94.7
28456;BME280;15682;56.742;38.866;2023-07-13T08:06:55;98290.0;;;13.8;93.0
28456;BME280;15682;56.742;38.866;2023-07-13T08:08:56;98290.0;;;13.8;91.9
28456;BME280;15682;56.742;38.866;2023-07-13T08:10:56;98290.0;;;13.7;94.1
28456;BME280;15682;56.742;38.866;2023-07-13T08:12:56;98300.0;;;13.8;92.6
28456;BME280;15682;56.742;38.866;2023-07-13T08:14:56;98300.0;;;13.8;96.3
28456;BME280;15682;56.742;38.866;2023-07-13T08:16:57;98300.0;;;13.9;94.1
28456;BME280;15682;56.742;38.866;2023-07-13T08:18:57;98300.0;;;14.0;94.1
28456;BME280;15682;56.742;38.866;2023-07-13T08:20:57;98300.0;;;14.0;94.5
28456;BME280;15682;56.742;38.866;2023-07-13T08:22:58;98300.0;;;14.0;93.9
28456;BME280;15682;56.742;38.866;2023-07-13T08:24:59;98300.0;;;14.0;93.9
28456;BME280;15682;56.742;38.866;2023-07-13T08:26:58;98300.0;;;14.1;93.9
28456;BME280;15682;56.742;38.866;2023-07-13T08:28:58;98300.0;;;14.1;93.3
28456;BME280;15682;56.742;38.866;2023-07-13T08:31:01;98300.0;;;14.1;94.4
28456;BME280;15682;56.742;38.866;2023-07-13T08:32:59;98300.0;;;14.1;94.7
28456;BME280;15682;56.742;38.866;2023-07-13T08:34:59;98300.0;;;14.1;94.6
28456;BME280;15682;56.742;38.866;2023-07-13T08:37:00;98300.0;;;14.1;93.5
28456;BME280;15682;56.742;38.866;2023-07-13T08:39:00;98300.0;;;14.1;93.5
28456;BME280;15682;56.742;38.866;2023-07-13T08:41:09;98300.0;;;14.0;95.0
28456;BME280;15682;56.742;38.866;2023-07-13T08:43:00;98300.0;;;13.8;94.5
28456;BME280;15682;56.742;38.866;2023-07-13T08:45:08;98300.0;;;13.8;95.6
28456;BME280;15682;56.742;38.866;2023-07-13T08:47:02;98300.0;;;13.8;95.6
28456;BME280;15682;56.742;38.866;2023-07-13T08:49:04;98300.0;;;13.8;95.0
28456;BME280;15682;56.742;38.866;2023-07-13T08:51:11;98300.0;;;13.7;94.3
28456;BME280;15682;56.742;38.866;2023-07-13T08:53:02;98300.0;;;13.7;94.9
28456;BME280;15682;56.742;38.866;2023-07-13T08:55:09;98300.0;;;13.6;95.8
28456;BME280;15682;56.742;38.866;2023-07-13T08:57:10;98300.0;;;13.6;95.8
28456;BME280;15682;56.742;38.866;2023-07-13T08:59:09;98300.0;;;13.6;96.8
28456;BME280;15682;56.742;38.866;2023-07-13T09:01:12;98300.0;;;13.6;95.9
28456;BME280;15682;56.742;38.866;2023-07-13T09:03:07;98300.0;;;13.7;97.4
28456;BME280;15682;56.742;38.866;2023-07-13T09:05:10;98300.0;;;13.7;96.0
28456;BME280;15682;56.742;38.866;2023-07-13T09:07:11;98300.0;;;13.6;96.6
28456;BME280;15682;56.742;38.866;2023-07-13T09:09:10;98300.0;;;13.6;97.7
28456;BME280;15682;56.742;38.866;2023-07-13T09:11:13;98300.0;;;13.6;97.7
28456;BME280;15682;56.742;38.866;2023-07-13T09:13:20;98300.0;;;13.6;97.7
28456;BME280;15682;56.742;38.866;2023-07-13T09:15:07;98310.0;;;13.6;96.9
28456;BME280;15682;56.742;38.866;2023-07-13T09:17:12;98310.0;;;13.7;97.6
28456;BME280;15682;56.742;38.866;2023-07-13T09:19:09;98310.0;;;13.7;96.8
28456;BME280;15682;56.742;38.866;2023-07-13T09:21:10;98310.0;;;13.7;98.6
28456;BME280;15682;56.742;38.866;2023-07-13T09:23:11;98310.0;;;13.6;98.6
28456;BME280;15682;56.742;38.866;2023-07-13T09:25:21;98320.0;;;13.6;97.7
28456;BME280;15682;56.742;38.866;2023-07-13T09:27:14;98320.0;;;13.6;98.4
28456;BME280;15682;56.742;38.866;2023-07-13T09:29:12;98320.0;;;13.6;96.1
28456;BME280;15682;56.742;38.866;2023-07-13T09:31:11;98320.0;;;13.6;97.5
28456;BME280;15682;56.742;38.866;2023-07-13T09:33:07;98320.0;;;13.6;97.5
28456;BME280;15682;56.742;38.866;2023-07-13T09:35:11;98320.0;;;13.7;97.0
28456;BME280;15682;56.742;38.866;2023-07-13T09:37:08;98320.0;;;13.7;98.1
28456;BME280;15682;56.742;38.866;2023-07-13T09:39:15;98320.0;;;13.7;98.1
28456;BME280;15682;56.742;38.866;2023-07-13T09:41:21;98320.0;;;13.7;98.8
28456;BME280;15682;56.742;38.866;2023-07-13T09:43:11;98320.0;;;13.6;97.2
28456;BME280;15682;56.742;38.866;2023-07-13T09:45:09;98320.0;;;13.6;97.2
28456;BME280;15682;56.742;38.866;2023-07-13T09:47:16;98320.0;;;13.6;97.2
28456;BME280;15682;56.742;38.866;2023-07-13T09:49:10;98320.0;;;13.6;97.2
28456;BME280;15682;56.742;38.866;2023-07-13T09:51:13;98320.0;;;13.8;98.2
28456;BME280;15682;56.742;38.866;2023-07-13T09:53:13;98320.0;;;13.9;96.7
28456;BME280;15682;56.742;38.866;2023-07-13T09:55:25;98320.0;;;13.8;97.2
28456;BME280;15682;56.742;38.866;2023-07-13T09:57:14;98320.0;;;13.7;96.5
28456;BME280;15682;56.742;38.866;2023-07-13T09:59:19;98320.0;;;13.5;95.5
28456;BME280;15682;56.742;38.866;2023-07-13T10:01:11;98320.0;;;13.5;96.7
28456;BME280;15682;56.742;38.866;2023-07-13T10:03:19;98320.0;;;13.6;97.4
28456;BME280;15682;56.742;38.866;2023-07-13T10:05:14;98320.0;;;13.6;98.5
28456;BME280;15682;56.742;38.866;2023-07-13T10:07:13;98330.0;;;13.7;97.5
28456;BME280;15682;56.742;38.866;2023-07-13T10:09:15;98330.0;;;13.7;98.0
28456;BME280;15682;56.742;38.866;2023-07-13T10:11:18;98330.0;;;13.7;97.2
28456;BME280;15682;56.742;38.866;2023-07-13T10:13:26;98330.0;;;13.6;98.5
28456;BME280;15682;56.742;38.866;2023-07-13T10:15:16;98330.0;;;13.6;98.6
28456;BME280;15682;56.742;38.866;2023-07-13T10:17:14;98330.0;;;13.5;98.9
28456;BME280;15682;56.742;38.866;2023-07-13T10:19:18;98330.0;;;13.5;97.2
28456;BME280;15682;56.742;38.866;2023-07-13T10:21:17;98330.0;;;13.4;98.5
28456;BME280;15682;56.742;38.866;2023-07-13T10:23:21;98330.0;;;13.4;97.9
28456;BME280;15682;56.742;38.866;2023-07-13T10:25:18;98330.0;;;13.4;97.9
28456;BME280;15682;56.742;38.866;2023-07-13T10:27:17;98330.0;;;13.4;97.9
28456;BME280;15682;56.742;38.866;2023-07-13T10:29:16;98330.0;;;13.4;99.4
28456;BME280;15682;56.742;38.866;2023-07-13T10:31:16;98330.0;;;13.5;98.0
28456;BME280;15682;56.742;38.866;2023-07-13T10:33:16;98330.0;;;13.5;98.0
28456;BME280;15682;56.742;38.866;2023-07-13T10:35:19;98330.0;;;13.7;98.8
28456;BME280;15682;56.742;38.866;2023-07-13T10:37:20;98330.0;;;13.7;97.6
28456;BME280;15682;56.742;38.866;2023-07-13T10:39:19;98330.0;;;13.7;98.6
28456;BME280;15682;56.742;38.866;2023-07-13T10:41:19;98330.0;;;13.7;97.5
28456;BME280;15682;56.742;38.866;2023-07-13T10:43:20;98330.0;;;13.8;97.5
28456;BME280;15682;56.742;38.866;2023-07-13T10:45:20;98330.0;;;13.8;98.0
28456;BME280;15682;56.742;38.866;2023-07-13T10:47:18;98330.0;;;13.6;97.7
28456;BME280;15682;56.742;38.866;2023-07-13T10:49:19;98320.0;;;13.6;97.7
28456;BME280;15682;56.742;38.866;2023-07-13T10:51:19;98320.0;;;13.6;98.6
28456;BME280;15682;56.742;38.866;2023-07-13T10:53:22;98320.0;;;13.5;98.3
28456;BME280;15682;56.742;38.866;2023-07-13T10:55:35;98320.0;;;13.3;97.4